createdAt,value
2017-11-09T10:25:19.330Z,95.6
2017-11-09T10:25:34.710Z,95.6
2017-11-09T10:25:53.640Z,95.6
2017-11-09T10:26:05.400Z,95.6
2017-11-09T10:26:19.395Z,95.6
2017-11-09T10:26:31.336Z,95.6
2017-11-09T10:26:42.890Z,95.6
2017-11-09T10:26:54.462Z,95.6
2017-11-09T10:27:09.947Z,95.6
2017-11-09T10:27:28.812Z,95.6
2017-11-09T10:27:44.213Z,95.6
2017-11-09T10:28:24.648Z,95.6
2017-11-09T10:28:37.065Z,95.6
2017-11-09T10:28:48.677Z,95.6
2017-11-09T10:29:04.152Z,95.6
2017-11-09T10:29:16.424Z,95.6
2017-11-09T10:29:43.735Z,90
2017-11-09T10:29:55.588Z,90
2017-11-09T10:30:11.022Z,90
2017-11-09T10:30:23.329Z,84.4
2017-11-09T10:30:39.082Z,84.4
2017-11-09T10:30:51.307Z,84.4
2017-11-09T10:31:06.894Z,78.7
2017-11-09T10:31:23.280Z,78.7
2017-11-09T10:31:35.661Z,78.7
2017-11-09T10:31:51.116Z,78.7
2017-11-09T10:32:03.561Z,73.1
2017-11-09T10:32:18.273Z,73.1
2017-11-09T10:32:29.698Z,73.1
2017-11-09T10:32:41.400Z,73.1
2017-11-09T10:32:52.917Z,73.1
2017-11-09T10:33:04.500Z,73.1
2017-11-09T10:33:19.897Z,67.5
2017-11-09T10:33:32.207Z,67.5
2017-11-09T10:33:47.855Z,67.5
2017-11-09T10:34:04.340Z,67.5
2017-11-09T10:34:20.437Z,67.5
2017-11-09T10:34:32.824Z,67.5
2017-11-09T10:35:14.843Z,61.9
2017-11-09T10:35:26.857Z,61.9
2017-11-09T10:35:37.859Z,61.9
2017-11-09T10:35:49.471Z,61.9
2017-11-09T10:36:01.000Z,61.9
2017-11-09T10:36:29.856Z,67.5
2017-11-09T10:36:54.397Z,67.5
2017-11-09T10:37:06.656Z,67.5
2017-11-09T10:37:23.313Z,67.5
2017-11-09T10:37:35.648Z,67.5
2017-11-09T10:37:47.245Z,67.5
2017-11-09T10:37:58.908Z,67.5
2017-11-09T10:38:10.397Z,67.5
2017-11-09T10:38:26.063Z,67.5
2017-11-09T10:38:38.199Z,67.5
2017-11-09T10:38:50.480Z,67.5
2017-11-09T10:39:06.274Z,67.5
2017-11-09T10:39:21.571Z,67.5
2017-11-09T10:39:37.917Z,67.5
2017-11-09T10:39:50.251Z,61.9
2017-11-09T10:40:05.976Z,61.9
2017-11-09T10:40:22.895Z,61.9
2017-11-09T10:40:38.585Z,61.9
2017-11-09T10:40:54.880Z,61.9
2017-11-09T10:41:07.207Z,61.9
2017-11-09T10:41:22.747Z,61.9
2017-11-09T10:41:39.083Z,61.9
2017-11-09T10:41:51.550Z,56.2
2017-11-09T10:42:03.031Z,56.2
2017-11-09T10:42:18.767Z,56.2
2017-11-09T10:42:30.940Z,56.2
2017-11-09T10:42:46.423Z,56.2
2017-11-09T10:42:59.859Z,56.2
2017-11-09T10:43:15.912Z,56.2
2017-11-09T10:43:32.338Z,56.2
2017-11-09T10:43:48.620Z,56.2
2017-11-09T10:44:05.236Z,56.2
2017-11-09T10:44:17.364Z,56.2
2017-11-09T10:44:32.963Z,56.2
2017-11-09T10:44:49.492Z,56.2
2017-11-09T10:45:05.681Z,50.6
2017-11-09T10:45:21.876Z,50.6
2017-11-09T10:45:34.217Z,50.6
2017-11-09T10:45:49.923Z,50.6
2017-11-09T10:46:06.143Z,50.6
2017-11-09T10:46:18.583Z,50.6
2017-11-09T10:46:34.083Z,50.6
2017-11-09T10:47:00.445Z,50.6
2017-11-09T10:47:12.454Z,50.6
2017-11-09T10:47:28.004Z,50.6
2017-11-09T10:47:44.333Z,50.6
2017-11-09T10:47:56.635Z,50.6
2017-11-09T10:48:08.156Z,50.6
2017-11-09T10:48:19.656Z,50.6
2017-11-09T10:48:31.282Z,50.6
2017-11-09T10:48:42.859Z,50.6
2017-11-09T10:48:54.517Z,50.6
2017-11-09T10:49:06.287Z,50.6
2017-11-09T10:49:21.482Z,50.6
2017-11-09T10:49:38.264Z,50.6
2017-11-09T10:49:55.231Z,50.6
2017-11-09T10:50:10.961Z,50.6
2017-11-09T10:50:23.655Z,50.6
2017-11-09T10:50:36.809Z,56.2
2017-11-09T10:50:54.343Z,56.2
2017-11-09T10:51:07.453Z,56.2
2017-11-09T10:51:19.229Z,56.2
2017-11-09T10:51:35.878Z,56.2
2017-11-09T10:51:48.225Z,61.9
2017-11-09T10:51:59.793Z,61.9
2017-11-09T10:52:23.997Z,61.9
2017-11-09T10:52:40.023Z,61.9
2017-11-09T10:52:53.001Z,61.9
2017-11-09T10:53:05.555Z,61.9
2017-11-09T10:53:18.962Z,61.9
2017-11-09T10:53:31.838Z,61.9
2017-11-09T10:53:42.997Z,61.9
2017-11-09T10:53:54.598Z,61.9
2017-11-09T10:54:10.186Z,61.9
2017-11-09T10:54:32.372Z,61.9
2017-11-09T10:54:43.637Z,61.9
2017-11-09T10:54:55.150Z,61.9
2017-11-09T10:55:10.738Z,61.9
2017-11-09T10:55:23.004Z,61.9
2017-11-09T10:55:45.660Z,61.9
2017-11-09T10:55:57.612Z,61.9
2017-11-09T10:56:09.009Z,61.9
2017-11-09T10:56:20.400Z,61.9
2017-11-09T10:56:31.953Z,61.9
2017-11-09T10:56:43.561Z,61.9
2017-11-09T10:56:55.153Z,61.9
2017-11-09T10:57:06.903Z,61.9
2017-11-09T10:57:18.316Z,61.9
2017-11-09T10:57:29.840Z,61.9
2017-11-09T10:57:41.439Z,61.9
2017-11-09T10:57:58.820Z,61.9
2017-11-09T10:58:11.242Z,61.9
2017-11-09T10:58:26.344Z,61.9
2017-11-09T10:58:38.696Z,61.9
2017-11-09T10:58:54.426Z,61.9
2017-11-09T10:59:06.635Z,61.9
2017-11-09T10:59:18.170Z,61.9
2017-11-09T10:59:29.862Z,61.9
2017-11-09T10:59:41.443Z,61.9
2017-11-09T10:59:52.935Z,61.9
2017-11-09T11:00:04.417Z,61.9
2017-11-09T11:00:15.911Z,61.9
2017-11-09T11:00:27.505Z,61.9
2017-11-09T11:00:39.067Z,61.9
2017-11-09T11:00:50.574Z,61.9
2017-11-09T11:01:02.220Z,61.9
2017-11-09T11:01:17.766Z,61.9
2017-11-09T11:01:30.201Z,61.9
2017-11-09T11:01:41.707Z,61.9
2017-11-09T11:01:54.248Z,67.5
2017-11-09T11:02:10.444Z,67.5
2017-11-09T11:02:26.777Z,67.5
2017-11-09T11:02:39.812Z,67.5
2017-11-09T11:02:56.174Z,67.5
2017-11-09T11:03:12.575Z,67.5
2017-11-09T11:03:24.871Z,67.5
2017-11-09T11:03:36.451Z,67.5
2017-11-09T11:04:00.224Z,67.5
2017-11-09T11:04:12.377Z,67.5
2017-11-09T11:04:24.111Z,67.5
2017-11-09T11:04:35.482Z,67.5
2017-11-09T11:04:47.120Z,67.5
2017-11-09T11:05:01.145Z,67.5
2017-11-09T11:05:13.342Z,67.5
2017-11-09T11:05:28.811Z,67.5
2017-11-09T11:05:41.315Z,67.5
2017-11-09T11:05:52.773Z,67.5
2017-11-09T11:06:16.032Z,67.5
2017-11-09T11:06:28.651Z,67.5
2017-11-09T11:06:44.107Z,67.5
2017-11-09T11:07:00.588Z,61.9
2017-11-09T11:07:13.791Z,61.9
2017-11-09T11:07:29.919Z,61.9
2017-11-09T11:07:42.537Z,61.9
2017-11-09T11:07:57.995Z,67.5
2017-11-09T11:08:14.887Z,61.9
2017-11-09T11:08:30.661Z,61.9
2017-11-09T11:08:42.926Z,61.9
2017-11-09T11:08:58.616Z,61.9
2017-11-09T11:09:15.017Z,61.9
2017-11-09T11:09:31.664Z,61.9
2017-11-09T11:09:47.578Z,61.9
2017-11-09T11:10:00.006Z,61.9
2017-11-09T11:10:15.444Z,61.9
2017-11-09T11:10:27.904Z,61.9
2017-11-09T11:10:43.275Z,61.9
2017-11-09T11:10:55.870Z,61.9
2017-11-09T11:11:11.197Z,56.2
2017-11-09T11:11:27.756Z,56.2
2017-11-09T11:11:53.994Z,56.2
2017-11-09T11:12:05.904Z,56.2
2017-11-09T11:12:21.521Z,56.2
2017-11-09T11:12:33.757Z,56.2
2017-11-09T11:12:45.509Z,56.2
2017-11-09T11:12:57.128Z,56.2
2017-11-09T11:13:08.710Z,56.2
2017-11-09T11:13:20.144Z,56.2
2017-11-09T11:13:31.562Z,56.2
2017-11-09T11:13:49.037Z,56.2
2017-11-09T11:14:05.164Z,56.2
2017-11-09T11:14:18.667Z,56.2
2017-11-09T11:14:34.631Z,56.2
2017-11-09T11:14:51.064Z,56.2
2017-11-09T11:15:05.905Z,56.2
2017-11-09T11:15:18.724Z,56.2
2017-11-09T11:15:31.370Z,56.2
2017-11-09T11:15:43.464Z,56.2
2017-11-09T11:15:56.080Z,56.2
2017-11-09T11:16:07.791Z,56.2
2017-11-09T11:16:21.636Z,56.2
2017-11-09T11:16:33.903Z,56.2
2017-11-09T11:16:45.459Z,56.2
2017-11-09T11:16:56.973Z,56.2
2017-11-09T11:17:08.570Z,56.2
2017-11-09T11:17:20.085Z,56.2
2017-11-09T11:17:35.547Z,61.9
2017-11-09T11:17:47.892Z,61.9
2017-11-09T11:18:15.796Z,61.9
2017-11-09T11:18:30.993Z,61.9
2017-11-09T11:18:43.284Z,61.9
2017-11-09T11:18:54.824Z,61.9
2017-11-09T11:19:06.637Z,61.9
2017-11-09T11:19:31.143Z,61.9
2017-11-09T11:19:42.299Z,61.9
2017-11-09T11:19:53.934Z,61.9
2017-11-09T11:20:09.419Z,61.9
2017-11-09T11:20:21.875Z,61.9
2017-11-09T11:20:33.373Z,61.9
2017-11-09T11:20:44.810Z,61.9
2017-11-09T11:21:10.525Z,61.9
2017-11-09T11:21:22.384Z,61.9
2017-11-09T11:21:33.922Z,61.9
2017-11-09T11:21:45.423Z,61.9
2017-11-09T11:21:57.032Z,61.9
2017-11-09T11:22:09.341Z,61.9
2017-11-09T11:22:25.733Z,61.9
2017-11-09T11:22:38.139Z,61.9
2017-11-09T11:22:49.705Z,61.9
2017-11-09T11:23:27.025Z,61.9
2017-11-09T11:23:38.453Z,61.9
2017-11-09T11:23:50.128Z,61.9
2017-11-09T11:24:05.747Z,61.9
2017-11-09T11:24:17.879Z,61.9
2017-11-09T11:24:29.449Z,61.9
2017-11-09T11:24:50.980Z,61.9
2017-11-09T11:25:03.716Z,61.9
2017-11-09T11:25:15.367Z,61.9
2017-11-09T11:25:33.534Z,61.9
2017-11-09T11:25:44.963Z,61.9
2017-11-09T11:26:00.465Z,61.9
2017-11-09T11:26:12.743Z,61.9
2017-11-09T11:26:24.257Z,61.9
2017-11-09T11:26:35.770Z,56.2
2017-11-09T11:26:47.484Z,56.2
2017-11-09T11:26:58.953Z,56.2
2017-11-09T11:27:14.485Z,56.2
2017-11-09T11:27:27.033Z,56.2
2017-11-09T11:27:38.420Z,56.2
2017-11-09T11:28:08.864Z,61.9
2017-11-09T11:28:20.692Z,61.9
2017-11-09T11:28:32.219Z,61.9
2017-11-09T11:28:43.712Z,61.9
2017-11-09T11:28:59.294Z,61.9
2017-11-09T11:29:11.603Z,61.9
2017-11-09T11:29:27.196Z,61.9
2017-11-09T11:29:43.483Z,61.9
2017-11-09T11:29:55.901Z,61.9
2017-11-09T11:30:07.455Z,61.9
2017-11-09T11:30:19.037Z,61.9
2017-11-09T11:30:30.687Z,61.9
2017-11-09T11:30:42.074Z,61.9
2017-11-09T11:30:53.612Z,61.9
2017-11-09T11:31:05.229Z,61.9
2017-11-09T11:31:33.762Z,61.9
2017-11-09T11:31:45.983Z,61.9
2017-11-09T11:31:57.657Z,61.9
2017-11-09T11:32:09.108Z,61.9
2017-11-09T11:32:24.657Z,61.9
2017-11-09T11:32:41.633Z,61.9
2017-11-09T11:32:53.487Z,61.9
2017-11-09T11:33:04.814Z,61.9
2017-11-09T11:33:16.446Z,61.9
2017-11-09T11:33:27.977Z,61.9
2017-11-09T11:33:41.984Z,61.9
2017-11-09T11:34:07.027Z,61.9
2017-11-09T11:34:18.562Z,61.9
2017-11-09T11:34:34.192Z,61.9
2017-11-09T11:34:50.343Z,61.9
2017-11-09T11:35:07.322Z,61.9
2017-11-09T11:35:19.140Z,61.9
2017-11-09T11:35:30.776Z,61.9
2017-11-09T11:35:46.432Z,56.2
2017-11-09T11:35:58.697Z,56.2
2017-11-09T11:36:10.210Z,56.2
2017-11-09T11:36:21.901Z,56.2
2017-11-09T11:36:33.431Z,56.2
2017-11-09T11:36:48.948Z,56.2
2017-11-09T11:37:01.273Z,56.2
2017-11-09T11:37:12.959Z,56.2
2017-11-09T11:37:28.597Z,56.2
2017-11-09T11:37:40.760Z,56.2
2017-11-09T11:37:52.235Z,56.2
2017-11-09T11:38:07.753Z,56.2
2017-11-09T11:38:20.288Z,56.2
2017-11-09T11:38:35.728Z,56.2
2017-11-09T11:38:48.650Z,56.2
2017-11-09T11:39:01.291Z,56.2
2017-11-09T11:39:16.814Z,56.2
2017-11-09T11:39:29.326Z,61.9
2017-11-09T11:39:45.293Z,61.9
2017-11-09T11:39:57.095Z,61.9
2017-11-09T11:40:12.685Z,61.9
2017-11-09T11:40:24.909Z,61.9
2017-11-09T11:40:51.894Z,61.9
2017-11-09T11:41:04.071Z,61.9
2017-11-09T11:41:19.530Z,61.9
2017-11-09T11:41:35.848Z,56.2
2017-11-09T11:41:52.243Z,56.2
2017-11-09T11:42:59.215Z,56.2
2017-11-09T11:43:10.599Z,56.2
2017-11-09T11:43:22.167Z,56.2
2017-11-09T11:43:33.708Z,56.2
2017-11-09T11:43:45.141Z,56.2
2017-11-09T11:43:56.751Z,56.2
2017-11-09T11:44:08.321Z,56.2
2017-11-09T11:44:23.969Z,56.2
2017-11-09T11:44:36.257Z,56.2
2017-11-09T11:44:47.947Z,56.2
2017-11-09T11:44:59.322Z,56.2
2017-11-09T11:45:14.842Z,56.2
2017-11-09T11:45:31.189Z,56.2
2017-11-09T11:45:43.513Z,56.2
2017-11-09T11:45:55.087Z,61.9
2017-11-09T11:46:10.704Z,61.9
2017-11-09T11:46:22.937Z,61.9
2017-11-09T11:46:39.411Z,61.9
2017-11-09T11:46:51.068Z,61.9
2017-11-09T11:47:02.432Z,61.9
2017-11-09T11:47:17.963Z,61.9
2017-11-09T11:47:30.332Z,61.9
2017-11-09T11:47:41.941Z,61.9
2017-11-09T11:47:53.545Z,61.9
2017-11-09T11:48:05.460Z,61.9
2017-11-09T11:48:16.603Z,61.9
2017-11-09T11:48:28.163Z,61.9
2017-11-09T11:48:39.541Z,61.9
2017-11-09T11:48:51.269Z,61.9
2017-11-09T11:49:06.741Z,61.9
2017-11-09T11:49:23.116Z,61.9
2017-11-09T11:49:39.533Z,61.9
2017-11-09T11:49:51.853Z,61.9
2017-11-09T11:50:03.719Z,61.9
2017-11-09T11:50:15.165Z,61.9
2017-11-09T11:50:30.645Z,61.9
2017-11-09T11:50:43.139Z,61.9
2017-11-09T11:50:54.525Z,61.9
2017-11-09T11:51:06.129Z,61.9
2017-11-09T11:51:21.486Z,56.2
2017-11-09T11:51:40.399Z,56.2
2017-11-09T11:51:51.807Z,56.2
2017-11-09T11:52:03.505Z,56.2
2017-11-09T11:52:14.940Z,56.2
2017-11-09T11:52:28.081Z,56.2
2017-11-09T11:52:39.628Z,56.2
2017-11-09T11:52:51.291Z,56.2
2017-11-09T11:53:02.816Z,56.2
2017-11-09T11:53:14.314Z,56.2
2017-11-09T11:53:29.840Z,56.2
2017-11-09T11:57:28.252Z,56.2
2017-11-09T11:57:39.419Z,56.2
2017-11-09T11:57:51.032Z,56.2
2017-11-09T11:58:06.469Z,56.2
2017-11-09T11:58:18.930Z,56.2
2017-11-09T11:59:32.206Z,61.9
2017-11-09T11:59:48.283Z,61.9
2017-11-09T12:00:00.717Z,61.9
2017-11-09T12:00:12.296Z,61.9
2017-11-09T12:00:28.512Z,61.9
2017-11-09T12:00:41.099Z,61.9
2017-11-09T12:01:03.149Z,61.9
2017-11-09T12:01:18.473Z,61.9
2017-11-09T12:01:35.508Z,61.9
2017-11-09T12:01:51.132Z,61.9
2017-11-09T12:02:07.724Z,61.9
2017-11-09T12:02:19.901Z,61.9
2017-11-09T12:02:31.467Z,61.9
2017-11-09T12:02:47.038Z,61.9
2017-11-09T12:02:59.927Z,61.9
2017-11-09T12:03:12.608Z,61.9
2017-11-09T12:03:28.135Z,61.9
2017-11-09T12:03:40.444Z,61.9
2017-11-09T12:03:52.066Z,61.9
2017-11-09T12:04:03.771Z,61.9
2017-11-09T12:04:15.103Z,61.9
2017-11-09T12:04:26.713Z,61.9
2017-11-09T12:04:42.210Z,61.9
2017-11-09T12:04:54.754Z,61.9
2017-11-09T12:05:06.322Z,61.9
2017-11-09T12:05:21.598Z,61.9
2017-11-09T12:05:34.111Z,61.9
2017-11-09T12:05:45.728Z,61.9
2017-11-09T12:05:57.659Z,61.9
2017-11-09T12:06:15.084Z,61.9
2017-11-09T12:06:26.725Z,61.9
2017-11-09T12:06:39.884Z,61.9
2017-11-09T12:06:51.478Z,56.2
2017-11-09T12:07:03.930Z,56.2
2017-11-09T12:07:20.024Z,56.2
2017-11-09T12:07:32.465Z,56.2
2017-11-09T12:07:43.951Z,56.2
2017-11-09T12:07:55.576Z,56.2
2017-11-09T12:08:07.135Z,56.2
2017-11-09T12:08:18.542Z,56.2
2017-11-09T12:08:30.156Z,56.2
2017-11-09T12:08:41.708Z,56.2
2017-11-09T12:08:53.333Z,56.2
2017-11-09T12:09:14.761Z,56.2
2017-11-09T12:09:26.545Z,56.2
2017-11-09T12:09:43.228Z,56.2
2017-11-09T12:09:59.514Z,56.2
2017-11-09T12:10:12.004Z,50.6
2017-11-09T12:16:47.650Z,50.6
2017-11-09T12:17:08.969Z,50.6
2017-11-09T12:17:20.064Z,50.6
2017-11-09T12:17:31.715Z,50.6
2017-11-09T12:17:43.231Z,50.6
2017-11-09T12:17:54.832Z,50.6
2017-11-09T12:18:06.391Z,50.6
2017-11-09T12:18:21.810Z,50.6
2017-11-09T12:18:34.218Z,50.6
2017-11-09T12:18:45.751Z,50.6
2017-11-09T12:18:57.371Z,50.6
2017-11-09T12:19:09.045Z,50.6
2017-11-09T12:19:24.426Z,50.6
2017-11-09T12:19:36.752Z,45
2017-11-09T12:19:52.289Z,45
2017-11-09T12:20:04.854Z,45
2017-11-09T12:20:16.270Z,45
2017-11-09T12:20:31.778Z,45
2017-11-09T12:20:48.139Z,45
2017-11-09T12:21:00.538Z,45
2017-11-09T12:21:12.264Z,45
2017-11-09T12:21:23.915Z,45
2017-11-09T12:21:35.094Z,45
2017-11-09T12:21:50.758Z,45
2017-11-09T12:22:07.146Z,45
2017-11-09T12:22:21.902Z,45
2017-11-09T12:22:59.208Z,45
2017-11-09T12:23:16.228Z,50.6
2017-11-09T12:23:27.781Z,50.6
2017-11-09T12:23:39.226Z,50.6
2017-11-09T12:23:54.916Z,50.6
2017-11-09T12:24:11.189Z,50.6
2017-11-09T12:24:27.576Z,50.6
2017-11-09T12:24:43.936Z,50.6
2017-11-09T12:24:56.372Z,50.6
2017-11-09T12:25:11.833Z,50.6
2017-11-09T12:25:24.858Z,50.6
2017-11-09T12:25:37.362Z,50.6
2017-11-09T12:25:48.863Z,50.6
2017-11-09T12:26:00.409Z,50.6
2017-11-09T12:26:12.118Z,50.6
2017-11-09T12:26:27.707Z,50.6
2017-11-09T12:26:40.037Z,50.6
2017-11-09T12:26:51.450Z,50.6
2017-11-09T12:27:07.053Z,50.6
2017-11-09T12:27:23.382Z,50.6
2017-11-09T12:27:39.848Z,50.6
2017-11-09T12:28:02.577Z,50.6
2017-11-09T12:28:20.093Z,50.6
2017-11-09T12:28:37.265Z,50.6
2017-11-09T12:29:00.043Z,50.6
2017-11-09T12:29:11.816Z,50.6
2017-11-09T12:29:23.438Z,50.6
2017-11-09T12:29:34.957Z,50.6
2017-11-09T12:29:50.660Z,50.6
2017-11-09T12:30:02.961Z,50.6
2017-11-09T12:30:18.422Z,50.6
2017-11-09T12:30:30.769Z,50.6
2017-11-09T12:30:42.423Z,50.6
2017-11-09T12:31:09.397Z,50.6
2017-11-09T12:31:25.408Z,50.6
2017-11-09T12:31:37.767Z,50.6
2017-11-09T12:31:53.375Z,50.6
2017-11-09T12:32:05.722Z,50.6
2017-11-09T12:32:29.489Z,50.6
2017-11-09T12:32:41.705Z,50.6
2017-11-09T12:32:53.166Z,50.6
2017-11-09T12:33:08.723Z,50.6
2017-11-09T12:33:25.125Z,50.6
2017-11-09T12:33:41.607Z,50.6
2017-11-09T12:33:57.900Z,50.6
2017-11-09T12:34:14.111Z,50.6
2017-11-09T12:34:30.531Z,50.6
2017-11-09T12:34:46.463Z,50.6
2017-11-09T12:34:57.683Z,50.6
2017-11-09T12:35:13.231Z,50.6
2017-11-09T12:35:25.624Z,50.6
2017-11-09T12:35:37.190Z,50.6
2017-11-09T12:35:48.582Z,50.6
2017-11-09T12:36:00.217Z,50.6
2017-11-09T12:36:11.791Z,50.6
2017-11-09T12:36:27.394Z,50.6
2017-11-09T12:36:39.877Z,50.6
2017-11-09T12:36:51.189Z,50.6
2017-11-09T12:37:07.708Z,50.6
2017-11-09T12:37:23.122Z,50.6
2017-11-09T12:37:39.580Z,50.6
2017-11-09T12:37:52.116Z,50.6
2017-11-09T12:38:03.459Z,50.6
2017-11-09T12:38:19.016Z,50.6
2017-11-09T12:38:31.342Z,50.6
2017-11-09T12:38:46.907Z,50.6
2017-11-09T12:38:59.147Z,50.6
2017-11-09T12:39:10.731Z,50.6
2017-11-09T12:39:26.197Z,50.6
2017-11-09T12:39:42.649Z,50.6
2017-11-09T12:39:55.190Z,50.6
2017-11-09T12:40:06.538Z,50.6
2017-11-09T12:40:18.111Z,50.6
2017-11-09T12:40:29.645Z,50.6
2017-11-09T12:40:41.218Z,50.6
2017-11-09T12:40:57.756Z,50.6
2017-11-09T12:41:13.294Z,50.6
2017-11-09T12:41:29.543Z,50.6
2017-11-09T12:41:41.967Z,50.6
2017-11-09T12:41:53.458Z,50.6
2017-11-09T12:42:16.912Z,50.6
2017-11-09T12:42:34.105Z,50.6
2017-11-09T12:42:49.799Z,50.6
2017-11-09T12:43:06.920Z,50.6
2017-11-09T12:43:22.599Z,50.6
2017-11-09T12:43:38.852Z,50.6
2017-11-09T12:43:55.151Z,50.6
2017-11-09T12:44:11.573Z,50.6
2017-11-09T12:44:27.848Z,50.6
2017-11-09T12:44:45.173Z,50.6
2017-11-09T12:45:00.686Z,50.6
2017-11-09T12:45:17.128Z,50.6
2017-11-09T12:45:47.069Z,50.6
2017-11-09T12:45:58.496Z,50.6
2017-11-09T12:46:09.959Z,50.6
2017-11-09T12:46:25.548Z,50.6
2017-11-09T12:46:41.823Z,50.6
2017-11-09T12:46:58.223Z,50.6
2017-11-09T12:47:10.566Z,50.6
2017-11-09T12:47:37.947Z,50.6
2017-11-09T12:47:49.597Z,50.6
2017-11-09T12:48:01.235Z,50.6
2017-11-09T12:48:17.693Z,45
2017-11-09T12:48:29.207Z,45
2017-11-09T12:48:40.753Z,45
2017-11-09T12:48:52.185Z,45
2017-11-09T12:49:07.790Z,45
2017-11-09T12:49:24.155Z,45
2017-11-09T12:49:36.503Z,45
2017-11-09T12:49:48.210Z,45
2017-11-09T12:49:59.606Z,45
2017-11-09T12:50:15.161Z,45
2017-11-09T12:50:27.503Z,45
2017-11-09T12:50:38.991Z,45
2017-11-09T12:50:50.597Z,45
2017-11-09T12:51:07.733Z,39.4
2017-11-09T12:51:20.090Z,39.4
2017-11-09T12:51:31.608Z,39.4
2017-11-09T12:51:43.300Z,39.4
2017-11-09T12:51:58.805Z,39.4
2017-11-09T12:52:11.171Z,39.4
2017-11-09T12:52:23.402Z,39.4
2017-11-09T12:52:35.908Z,39.4
2017-11-09T12:52:47.350Z,39.4
2017-11-09T12:52:59.086Z,39.4
2017-11-09T12:53:11.198Z,39.4
2017-11-09T12:53:27.663Z,39.4
2017-11-09T12:53:40.054Z,39.4
2017-11-09T12:53:51.475Z,39.4
2017-11-09T12:54:03.091Z,39.4
2017-11-09T12:54:14.667Z,39.4
2017-11-09T12:54:30.131Z,39.4
2017-11-09T12:54:42.527Z,39.4
2017-11-09T12:55:04.041Z,39.4
2017-11-09T12:55:15.264Z,39.4
2017-11-09T12:55:30.800Z,39.4
2017-11-09T12:55:43.127Z,39.4
2017-11-09T12:55:58.669Z,39.4
2017-11-09T12:56:11.058Z,39.4
2017-11-09T12:56:26.650Z,45
2017-11-09T12:56:38.969Z,45
2017-11-09T12:56:50.424Z,45
2017-11-09T12:57:02.059Z,45
2017-11-09T12:57:13.611Z,45
2017-11-09T12:57:29.156Z,45
2017-11-09T12:57:41.571Z,45
2017-11-09T12:57:53.122Z,45
2017-11-09T12:58:08.597Z,45
2017-11-09T12:58:21.064Z,45
2017-11-09T12:58:36.440Z,45
2017-11-09T12:58:48.870Z,45
2017-11-09T12:59:00.443Z,45
2017-11-09T12:59:47.711Z,45
2017-11-09T13:00:09.106Z,45
2017-11-09T13:00:20.245Z,45
2017-11-09T13:00:31.729Z,45
2017-11-09T13:00:43.355Z,45
2017-11-09T13:00:55.186Z,45
2017-11-09T13:01:10.515Z,45
2017-11-09T13:01:22.701Z,45
2017-11-09T13:01:35.332Z,45
2017-11-09T13:01:47.572Z,45
2017-11-09T13:01:59.092Z,45
2017-11-09T13:02:10.571Z,45
2017-11-09T13:02:22.251Z,45
2017-11-09T13:02:33.740Z,45
2017-11-09T13:02:51.440Z,45
2017-11-09T13:03:16.268Z,45
2017-11-09T13:03:31.816Z,45
2017-11-09T13:03:48.660Z,45
2017-11-09T13:04:04.465Z,45
2017-11-09T13:04:20.766Z,45
2017-11-09T13:04:37.228Z,45
2017-11-09T13:04:53.990Z,45
2017-11-09T13:05:09.775Z,45
2017-11-09T13:05:34.140Z,45
2017-11-09T13:05:53.213Z,45
2017-11-09T13:06:08.518Z,45
2017-11-09T13:06:24.931Z,45
2017-11-09T13:06:41.276Z,45
2017-11-09T13:06:57.709Z,45
2017-11-09T13:07:16.351Z,45
2017-11-09T13:07:31.792Z,45
2017-11-09T13:07:44.383Z,45
2017-11-09T13:07:55.717Z,45
2017-11-09T13:08:13.855Z,45
2017-11-09T13:08:25.237Z,45
2017-11-09T13:08:40.792Z,45
2017-11-09T13:08:57.135Z,45
2017-11-09T13:09:25.242Z,45
2017-11-09T13:09:36.920Z,45
2017-11-09T13:09:48.645Z,45
2017-11-09T13:10:00.040Z,45
2017-11-09T13:10:15.655Z,45
2017-11-09T13:10:28.055Z,45
2017-11-09T13:10:43.547Z,45
2017-11-09T13:11:00.022Z,45
2017-11-09T13:11:12.255Z,45
2017-11-09T13:11:27.870Z,45
2017-11-09T13:11:44.067Z,45
2017-11-09T13:11:56.466Z,45
2017-11-09T13:12:09.144Z,45
2017-11-09T13:12:21.316Z,45
2017-11-09T13:12:32.818Z,45
2017-11-09T13:12:48.345Z,45
2017-11-09T13:13:00.649Z,45
2017-11-09T13:13:16.208Z,45
2017-11-09T13:13:28.655Z,45
2017-11-09T13:13:44.173Z,45
2017-11-09T13:14:01.118Z,45
2017-11-09T13:14:12.842Z,45
2017-11-09T13:14:24.423Z,45
2017-11-09T13:14:35.925Z,45
2017-11-09T13:14:47.555Z,45
2017-11-09T13:15:03.157Z,45
2017-11-09T13:15:15.384Z,45
2017-11-09T13:15:26.957Z,45
2017-11-09T13:15:42.518Z,45
2017-11-09T13:15:58.932Z,39.4
2017-11-09T13:16:15.249Z,39.4
2017-11-09T13:16:31.613Z,39.4
2017-11-09T13:16:43.988Z,39.4
2017-11-09T13:16:55.583Z,39.4
2017-11-09T13:17:07.031Z,39.4
2017-11-09T13:17:18.667Z,39.4
2017-11-09T13:17:30.298Z,39.4
2017-11-09T13:17:41.753Z,39.4
2017-11-09T13:17:53.297Z,39.4
2017-11-09T13:18:19.905Z,39.4
2017-11-09T13:18:36.494Z,39.4
2017-11-09T13:18:53.366Z,39.4
2017-11-09T13:19:05.247Z,39.4
2017-11-09T13:19:16.832Z,39.4
2017-11-09T13:19:32.250Z,39.4
2017-11-09T13:19:48.625Z,39.4
2017-11-09T13:20:01.018Z,39.4
2017-11-09T13:20:16.533Z,39.4
2017-11-09T13:20:28.951Z,39.4
2017-11-09T13:20:44.389Z,39.4
2017-11-09T13:21:01.336Z,39.4
2017-11-09T13:21:17.128Z,39.4
2017-11-09T13:21:29.441Z,39.4
2017-11-09T13:21:41.153Z,39.4
2017-11-09T13:21:52.588Z,39.4
2017-11-09T13:22:04.354Z,39.4
2017-11-09T13:22:19.846Z,39.4
2017-11-09T13:22:36.092Z,39.4
2017-11-09T13:22:48.400Z,39.4
2017-11-09T13:23:00.113Z,39.4
2017-11-09T13:23:11.547Z,39.4
2017-11-09T13:23:27.093Z,39.4
2017-11-09T13:23:39.411Z,39.4
2017-11-09T13:23:51.245Z,39.4
2017-11-09T13:24:06.674Z,39.4
2017-11-09T13:24:22.964Z,39.4
2017-11-09T13:24:35.315Z,39.4
2017-11-09T13:24:51.021Z,39.4
2017-11-09T13:25:03.233Z,39.4
2017-11-09T13:25:19.016Z,39.4
2017-11-09T13:25:35.107Z,39.4
2017-11-09T13:25:51.355Z,39.4
2017-11-09T13:26:07.779Z,39.4
2017-11-09T13:26:20.195Z,39.4
2017-11-09T13:26:35.835Z,39.4
2017-11-09T13:26:48.212Z,39.4
2017-11-09T13:27:03.607Z,39.4
2017-11-09T13:27:16.035Z,39.4
2017-11-09T13:27:31.499Z,39.4
2017-11-09T13:27:47.933Z,39.4
2017-11-09T13:28:04.216Z,33.7
2017-11-09T13:28:28.643Z,33.7
2017-11-09T13:28:53.807Z,33.7
2017-11-09T13:29:09.180Z,33.7
2017-11-09T13:29:21.554Z,33.7
2017-11-09T13:29:33.151Z,33.7
2017-11-09T13:29:44.689Z,33.7
2017-11-09T13:29:56.190Z,33.7
2017-11-09T13:30:11.793Z,33.7
2017-11-09T13:30:24.069Z,33.7
2017-11-09T13:30:35.580Z,33.7
2017-11-09T13:30:51.874Z,33.7
2017-11-09T13:31:03.455Z,33.7
2017-11-09T13:31:15.054Z,33.7
2017-11-09T13:31:26.631Z,33.7
2017-11-09T13:31:42.230Z,28.1
2017-11-09T13:31:58.701Z,28.1
2017-11-09T13:32:10.932Z,28.1
2017-11-09T13:32:22.552Z,28.1
2017-11-09T13:32:34.015Z,28.1
2017-11-09T13:32:49.551Z,28.1
2017-11-09T13:33:29.707Z,28.1
2017-11-09T13:33:46.494Z,28.1
2017-11-09T13:34:03.481Z,28.1
2017-11-09T13:34:19.251Z,28.1
2017-11-09T13:34:36.503Z,28.1
2017-11-09T13:34:51.953Z,22.5
2017-11-09T13:35:06.706Z,22.5
2017-11-09T13:35:22.967Z,22.5
2017-11-09T13:35:35.284Z,22.5
2017-11-09T13:35:47.748Z,22.5
2017-11-09T13:35:59.848Z,22.5
2017-11-09T13:36:15.314Z,22.5
2017-11-09T13:36:31.680Z,22.5
2017-11-09T13:36:44.004Z,22.5
2017-11-09T13:36:59.616Z,22.5
2017-11-09T13:37:15.800Z,22.5
2017-11-09T13:37:32.368Z,22.5
2017-11-09T13:37:44.481Z,22.5
2017-11-09T13:37:56.147Z,22.5
2017-11-09T13:38:07.574Z,22.5
2017-11-09T13:38:23.219Z,22.5
2017-11-09T13:38:39.784Z,22.5
2017-11-09T13:38:56.036Z,22.5
2017-11-09T13:39:08.399Z,22.5
2017-11-09T13:39:23.885Z,22.5
2017-11-09T13:39:40.279Z,22.5
2017-11-09T13:39:56.874Z,22.5
2017-11-09T13:40:08.992Z,22.5
2017-11-09T13:40:20.553Z,22.5
2017-11-09T13:40:32.092Z,22.5
2017-11-09T13:40:43.650Z,22.5
2017-11-09T13:40:55.491Z,22.5
2017-11-09T13:41:06.776Z,22.5
2017-11-09T13:41:18.362Z,22.5
2017-11-09T13:41:33.788Z,22.5
2017-11-09T13:41:46.225Z,22.5
2017-11-09T13:41:57.790Z,22.5
2017-11-09T13:42:09.297Z,22.5
2017-11-09T13:42:20.898Z,22.5
2017-11-09T13:42:32.453Z,22.5
2017-11-09T13:42:44.037Z,22.5
2017-11-09T13:43:00.535Z,22.5
2017-11-09T13:43:11.922Z,22.5
2017-11-09T13:43:23.394Z,22.5
2017-11-09T13:43:36.023Z,22.5
2017-11-09T13:43:48.138Z,22.5
2017-11-09T13:44:03.712Z,22.5
2017-11-09T13:44:16.132Z,22.5
2017-11-09T13:44:31.541Z,22.5
2017-11-09T13:44:43.919Z,22.5
2017-11-09T13:44:55.500Z,22.5
2017-11-09T13:45:07.264Z,22.5
2017-11-09T13:45:18.566Z,22.5
2017-11-09T13:45:30.547Z,22.5
2017-11-09T13:45:41.694Z,22.5
2017-11-09T13:45:53.273Z,22.5
2017-11-09T13:46:08.978Z,22.5
2017-11-09T13:46:21.116Z,22.5
2017-11-09T13:46:32.808Z,22.5
2017-11-09T13:46:44.300Z,22.5
2017-11-09T13:46:55.850Z,22.5
2017-11-09T13:47:07.460Z,22.5
2017-11-09T13:47:18.929Z,22.5
2017-11-09T13:47:30.507Z,22.5
2017-11-09T13:47:42.184Z,22.5
2017-11-09T13:47:53.682Z,22.5